This is the latest recevied weather packets stored in our database for station/object K9RCP-24. If no packets are shown the sender has not sent any weather packets the latest 10 day(s).
| Time | Temp. | Humidity | Pressure | Rain* | Wind** | Luminosity | Snow |
|---|---|---|---|---|---|---|---|
| 1777957603 | 13.89° C | 74% | 1015.6 hPa | 0 mm | - | - | - |
| 1777956950 | 13.89° C | 73% | 1015.2 hPa | 0 mm | - | - | - |
| 1777956455 | 13.89° C | 73% | 1015.2 hPa | 0 mm | - | - | - |
| 1777956331 | 13.89° C | 73% | 1014.9 hPa | 0 mm | - | - | - |
| 1777955583 | -17.78° C | 100% | 1014.9 hPa | 0 mm | - | - | - |
| 1777955459 | -17.78° C | 100% | 1015.2 hPa | 0 mm | - | - | - |
| 1777955032 | -17.78° C | 100% | 1014.9 hPa | 0 mm | - | - | - |
| 1777954180 | -17.78° C | 100% | 1014.6 hPa | 0 mm | - | - | - |
| 1777952997 | -17.78° C | 100% | 1014.2 hPa | 0 mm | - | - | - |
| 1777952443 | 16.11° C | 69% | 1014.2 hPa | 0 mm | - | - | - |
| 1777951075 | 16.67° C | 66% | 1013.9 hPa | 0 mm | - | - | - |
| 1777950567 | 17.22° C | 65% | 1014.2 hPa | 0 mm | - | - | - |
| 1777949519 | -17.78° C | 100% | 1013.5 hPa | 0 mm | - | - | - |
| 1777949262 | -17.78° C | 100% | 1013.9 hPa | 0 mm | - | - | - |
| 1777948762 | -17.78° C | 100% | 1013.5 hPa | 0 mm | - | - | - |
| 1777947520 | 19.44° C | 59% | 1013.5 hPa | 0 mm | - | - | - |
| 1777946080 | -17.78° C | 100% | 1013.5 hPa | 0 mm | - | - | - |
| 1777945262 | 22.22° C | 54% | 1013.2 hPa | 0 mm | - | - | - |
| 1777943129 | 23.33° C | 53% | 1013.5 hPa | 0 mm | - | - | - |
| 1777943005 | 23.33° C | 53% | 1013.5 hPa | 0 mm | - | - | - |
| 1777942347 | 23.33° C | 53% | 1013.5 hPa | 0 mm | - | - | - |
| 1777940299 | 23.33° C | 54% | 1013.5 hPa | 0 mm | - | - | - |
| 1777939918 | 23.33° C | 55% | 1013.5 hPa | 0 mm | - | - | - |
| 1777939265 | 23.33° C | 53% | 1013.9 hPa | 0 mm | - | - | - |
| 1777938893 | 23.33° C | 53% | 1013.9 hPa | 0 mm | - | - | - |
* Rain latest hour (hover to see other rain measurements)
** Current wind speed in m/s (hover to see current wind gust speed)